Time;durP1;ratioP1;P1;durP2;ratioP2;P2;SDS_P1;SDS_P2;PMS_P1;PMS_P2;Temp;Humidity;BMP_temperature;BMP_pressure;BME280_temperature;BME280_humidity;BME280_pressure;Samples;Min_cycle;Max_cycle;Signal;HPM_P1;HPM_P2
2022/09/18 00:01:27;;;;;;;5.30;1.92;;;;;;;20.77;74.03;93396.97;5108901;28;20192;-80
2022/09/18 00:03:57;;;;;;;5.70;2.30;;;;;;;20.29;75.32;93333.19;5109503;28;20177;-80
2022/09/18 00:06:26;;;;;;;6.63;2.17;;;;;;;20.51;76.53;93394.91;5109417;28;20221;-81
2022/09/18 00:08:54;;;;;;;4.72;2.38;;;;;;;20.30;76.71;93409.28;5109612;28;20189;-79
2022/09/18 00:11:24;;;;;;;3.63;2.20;;;;;;;19.76;77.05;93367.13;5110028;28;20229;-79
2022/09/18 00:13:51;;;;;;;3.37;2.10;;;;;;;19.96;77.44;93453.19;5109760;28;20392;-79
2022/09/18 00:16:20;;;;;;;2.10;2.00;;;;;;;19.71;78.10;93463.78;5109609;28;20562;-81
2022/09/18 00:18:49;;;;;;;4.93;1.77;;;;;;;19.49;78.84;93473.84;5109517;28;20204;-80
2022/09/18 00:21:18;;;;;;;5.07;1.80;;;;;;;19.37;78.00;93470.44;5110184;28;20189;-78
2022/09/18 00:23:45;;;;;;;1.73;1.60;;;;;;;19.10;78.53;93464.06;5109721;28;20207;-80
2022/09/18 00:26:14;;;;;;;4.63;2.03;;;;;;;18.12;76.27;93333.78;5109394;28;20203;-81
2022/09/18 00:28:40;;;;;;;2.43;1.37;;;;;;;18.36;75.63;93414.16;5109563;28;20641;-81
2022/09/18 00:31:09;;;;;;;1.40;1.30;;;;;;;17.47;76.32;93341.19;5109264;28;20197;-81
2022/09/18 00:33:36;;;;;;;1.10;1.10;;;;;;;18.23;78.06;93505.66;5108963;28;20201;-79
2022/09/18 00:36:07;;;;;;;2.70;1.30;;;;;;;18.14;76.42;93505.13;5108901;28;20258;-79
2022/09/18 00:38:34;;;;;;;1.13;1.03;;;;;;;18.00;77.35;93511.41;5109794;28;20180;-78
2022/09/18 00:41:02;;;;;;;1.30;1.30;;;;;;;17.79;78.04;93517.78;5109246;28;20560;-79
2022/09/18 00:43:31;;;;;;;2.53;1.20;;;;;;;17.76;77.82;93523.34;5109651;28;20314;-81
2022/09/18 00:46:01;;;;;;;1.00;1.00;;;;;;;17.77;75.69;93543.03;5108894;28;20193;-79
2022/09/18 00:48:35;;;;;;;5.73;1.30;;;;;;;17.70;72.23;93537.06;5109361;28;20193;-78
2022/09/18 00:51:02;;;;;;;4.87;1.10;;;;;;;16.96;71.49;93466.16;5109460;28;20186;-78
2022/09/18 00:53:30;;;;;;;1.03;1.03;;;;;;;16.79;73.14;93512.31;5109740;28;20211;-78
2022/09/18 00:56:00;;;;;;;2.20;1.10;;;;;;;17.03;75.37;93576.19;5111283;28;20771;-78
2022/09/18 00:58:27;;;;;;;1.70;0.90;;;;;;;16.80;75.88;93558.59;5112679;28;20189;-78
2022/09/18 01:00:54;;;;;;;0.90;0.90;;;;;;;16.87;75.78;93594.72;5112409;28;20271;-78
2022/09/18 01:03:21;;;;;;;1.07;1.00;;;;;;;16.93;74.11;93600.88;5113387;28;20185;-81
2022/09/18 01:06:02;;;;;;;0.80;0.80;;;;;;;16.87;74.72;93612.00;5112430;28;20228;-80
2022/09/18 01:08:41;;;;;;;1.03;1.03;;;;;;;16.68;75.88;93632.47;5112875;28;20209;-80
2022/09/18 01:11:21;;;;;;;1.23;1.00;;;;;;;16.63;76.21;93652.16;5112377;28;20196;-79
2022/09/18 01:13:57;;;;;;;1.43;0.97;;;;;;;16.61;75.75;93680.72;5112441;28;20740;-78
2022/09/18 01:16:30;;;;;;;3.27;1.10;;;;;;;16.49;77.29;93666.81;5092029;28;20328;-79
2022/09/18 01:19:12;;;;;;;1.30;1.20;;;;;;;16.33;78.03;93690.47;5103529;28;20193;-81
2022/09/18 01:21:44;;;;;;;1.90;0.90;;;;;;;16.27;78.68;93704.91;5113014;28;20284;-78
2022/09/18 01:24:28;;;;;;;0.90;0.90;;;;;;;15.91;79.27;93676.91;5112193;28;20202;-77
2022/09/18 01:26:57;;;;;;;1.40;1.30;;;;;;;16.12;79.89;93727.53;5112966;28;20340;-80
2022/09/18 01:29:42;;;;;;;2.93;1.00;;;;;;;16.26;76.45;93734.28;5111843;28;20181;-80
2022/09/18 01:32:18;;;;;;;0.90;0.90;;;;;;;16.01;78.93;93734.03;5112206;28;20192;-78
2022/09/18 01:34:53;;;;;;;0.90;0.90;;;;;;;15.94;79.44;93754.66;5112403;28;20284;-79
2022/09/18 01:37:28;;;;;;;1.00;1.00;;;;;;;15.58;80.22;93721.38;5112675;28;20322;-79
2022/09/18 01:40:01;;;;;;;0.90;0.90;;;;;;;15.84;79.42;93769.69;5111916;28;20192;-78
2022/09/18 01:42:30;;;;;;;0.90;0.90;;;;;;;15.83;79.19;93785.34;5111769;28;20189;-79
2022/09/18 01:45:04;;;;;;;1.00;1.00;;;;;;;15.86;76.96;93790.13;5111585;28;20192;-78
2022/09/18 01:47:38;;;;;;;0.80;0.80;;;;;;;15.63;78.82;93804.06;5111479;28;20235;-78
2022/09/18 01:50:06;;;;;;;0.90;0.90;;;;;;;15.65;77.79;93803.91;5111931;28;20201;-79
2022/09/18 01:52:38;;;;;;;3.17;1.10;;;;;;;15.46;79.67;93816.47;5111546;28;20192;-79
2022/09/18 01:55:12;;;;;;;1.00;1.00;;;;;;;15.37;79.49;93801.31;5111852;28;20270;-78
2022/09/18 01:57:47;;;;;;;0.87;0.87;;;;;;;15.16;79.97;93779.81;5111274;28;20243;-77
2022/09/18 02:00:16;;;;;;;0.90;0.90;;;;;;;15.30;80.90;93825.28;5110594;28;20185;-78
2022/09/18 02:02:50;;;;;;;2.30;0.90;;;;;;;14.68;79.96;93738.47;5110982;28;20563;-78
2022/09/18 02:05:23;;;;;;;0.90;0.90;;;;;;;15.24;80.27;93836.34;5111428;28;20236;-78
2022/09/18 02:07:58;;;;;;;0.80;0.80;;;;;;;15.20;79.28;93848.00;5110370;28;20631;-78
2022/09/18 02:10:29;;;;;;;0.90;0.90;;;;;;;15.14;79.64;93859.03;5111313;28;20180;-78
2022/09/18 02:12:56;;;;;;;0.80;0.80;;;;;;;15.00;79.27;93847.81;5110906;28;20189;-77
2022/09/18 02:15:31;;;;;;;0.83;0.83;;;;;;;14.79;77.65;93833.19;5111670;28;20192;-79
2022/09/18 02:18:03;;;;;;;0.90;0.90;;;;;;;14.83;76.31;93823.31;5110982;28;20185;-79
2022/09/18 02:20:34;;;;;;;0.80;0.80;;;;;;;15.00;78.21;93863.28;5111054;28;20197;-81
2022/09/18 02:23:05;;;;;;;2.50;1.10;;;;;;;15.09;75.76;93876.03;5111136;28;20193;-79
2022/09/18 02:25:37;;;;;;;0.90;0.90;;;;;;;14.93;76.88;93880.44;5111086;28;20199;-78
2022/09/18 02:28:07;;;;;;;0.90;0.90;;;;;;;14.40;77.62;93819.91;5111047;28;20185;-78
2022/09/18 02:30:38;;;;;;;1.00;1.00;;;;;;;14.78;78.41;93905.44;5111019;28;20659;-78
2022/09/18 02:33:22;;;;;;;1.07;1.07;;;;;;;14.73;78.60;93907.78;5110495;28;20227;-78
2022/09/18 02:35:58;;;;;;;3.53;1.13;;;;;;;14.52;79.62;93909.31;5110868;28;20287;-79
2022/09/18 02:38:31;;;;;;;1.00;1.00;;;;;;;14.73;78.18;93952.31;5111108;28;20177;-78
2022/09/18 02:41:04;;;;;;;1.00;1.00;;;;;;;14.55;77.82;93937.28;5110716;28;20208;-78
2022/09/18 02:43:42;;;;;;;1.23;1.03;;;;;;;13.52;77.49;93765.13;5110566;28;20211;-79
2022/09/18 02:46:20;;;;;;;1.23;1.00;;;;;;;14.65;77.61;93955.00;5110564;28;20188;-79
2022/09/18 02:48:59;;;;;;;1.10;1.10;;;;;;;14.58;77.27;93958.47;5111344;28;20204;-79
2022/09/18 02:51:31;;;;;;;2.33;1.00;;;;;;;14.64;75.85;93958.56;5110167;28;20185;-78
2022/09/18 02:54:06;;;;;;;1.00;1.00;;;;;;;14.57;75.24;93956.88;5110226;28;20683;-77
2022/09/18 02:56:38;;;;;;;1.20;1.20;;;;;;;14.44;75.70;93963.41;5109811;28;20205;-78
2022/09/18 02:59:10;;;;;;;1.10;1.10;;;;;;;13.18;75.16;93779.25;5110781;28;20187;-82
2022/09/18 03:01:42;;;;;;;1.10;1.10;;;;;;;14.28;74.45;93958.47;5110168;28;20227;-80
2022/09/18 03:04:13;;;;;;;1.10;1.10;;;;;;;14.01;76.21;93952.16;5110292;28;20552;-80
2022/09/18 03:06:40;;;;;;;0.97;0.97;;;;;;;14.14;74.10;93978.06;5110218;28;20232;-80
2022/09/18 03:09:07;;;;;;;1.20;1.20;;;;;;;13.90;75.43;93961.09;5110681;28;20189;-81
2022/09/18 03:11:35;;;;;;;1.23;1.23;;;;;;;13.81;73.79;93939.03;5109570;28;20246;-79
2022/09/18 03:14:02;;;;;;;1.17;1.17;;;;;;;13.79;75.15;93951.28;5113577;28;20220;-79
2022/09/18 03:16:29;;;;;;;1.20;1.20;;;;;;;13.92;72.46;93968.66;5116495;28;20205;-77
2022/09/18 03:19:00;;;;;;;1.10;1.10;;;;;;;13.35;74.89;93921.16;5110956;28;20195;-81
2022/09/18 03:21:27;;;;;;;1.20;1.20;;;;;;;13.68;75.14;93980.75;5109888;28;20192;-81
2022/09/18 03:23:54;;;;;;;2.70;1.20;;;;;;;13.75;75.12;94002.22;5110499;28;20188;-81
2022/09/18 03:26:21;;;;;;;1.17;1.17;;;;;;;13.67;74.51;93996.34;5109336;28;20193;-79
2022/09/18 03:28:48;;;;;;;2.70;1.27;;;;;;;13.15;75.87;93943.09;5110240;28;20188;-78
2022/09/18 03:31:15;;;;;;;1.20;1.20;;;;;;;13.60;75.80;94008.28;5109480;28;20188;-78
2022/09/18 03:33:42;;;;;;;1.20;1.10;;;;;;;13.65;74.83;94006.81;5109939;28;20615;-79
2022/09/18 03:36:10;;;;;;;1.17;1.10;;;;;;;13.46;75.79;93996.97;5109715;28;20675;-79
2022/09/18 03:38:38;;;;;;;1.50;1.40;;;;;;;13.59;76.55;94011.81;5109725;28;20181;-78
2022/09/18 03:41:06;;;;;;;1.50;1.40;;;;;;;13.55;76.12;94009.59;5109293;28;20276;-79
2022/09/18 03:43:33;;;;;;;1.20;1.20;;;;;;;13.40;76.81;93995.91;5109905;28;20192;-80
2022/09/18 03:45:59;;;;;;;1.20;1.20;;;;;;;13.48;75.15;93995.06;5110210;28;20181;-79
2022/09/18 03:48:26;;;;;;;2.17;1.33;;;;;;;13.47;75.85;94001.97;5109801;28;20193;-80
2022/09/18 03:50:53;;;;;;;1.30;1.20;;;;;;;13.64;74.97;94024.94;5109783;28;20679;-78
2022/09/18 03:53:21;;;;;;;3.30;1.30;;;;;;;13.57;74.82;94027.41;5109219;28;20180;-78
2022/09/18 03:55:49;;;;;;;1.17;1.17;;;;;;;13.39;75.16;94012.31;5109713;28;20200;-78
2022/09/18 03:58:18;;;;;;;1.20;1.20;;;;;;;13.60;75.04;94037.34;5109455;28;20703;-80
2022/09/18 04:00:45;;;;;;;1.53;1.50;;;;;;;13.49;75.25;94056.53;5109591;28;20185;-82
2022/09/18 04:03:12;;;;;;;1.20;1.20;;;;;;;13.32;75.63;94033.69;5110167;28;20193;-82
2022/09/18 04:05:39;;;;;;;1.40;1.40;;;;;;;13.36;76.24;94065.75;5109669;28;20255;-81
2022/09/18 04:08:06;;;;;;;2.77;1.30;;;;;;;13.16;75.60;94034.53;5109352;28;20189;-80
2022/09/18 04:10:34;;;;;;;1.40;1.30;;;;;;;12.98;75.75;94004.81;5109669;28;20608;-80
2022/09/18 04:13:01;;;;;;;1.30;1.30;;;;;;;13.35;75.53;94072.66;5109487;28;20177;-82
2022/09/18 04:15:28;;;;;;;1.70;1.60;;;;;;;13.01;73.97;94007.03;5109739;28;20181;-80
2022/09/18 04:17:55;;;;;;;1.40;1.40;;;;;;;13.46;74.35;94090.25;5109097;28;20224;-83
2022/09/18 04:20:22;;;;;;;1.80;1.70;;;;;;;13.39;74.51;94094.47;5109908;28;20193;-79
2022/09/18 04:22:48;;;;;;;1.40;1.40;;;;;;;13.36;74.24;94104.28;5109165;28;20197;-81
2022/09/18 04:25:16;;;;;;;1.37;1.30;;;;;;;13.39;74.16;94094.47;5109383;28;20618;-79
2022/09/18 04:27:46;;;;;;;1.40;1.40;;;;;;;13.40;73.40;94093.50;5109227;28;20185;-80
2022/09/18 04:30:14;;;;;;;1.53;1.43;;;;;;;13.18;74.93;94102.75;5110399;28;20220;-77
2022/09/18 04:32:43;;;;;;;1.83;1.60;;;;;;;13.05;75.44;94084.50;5113524;28;20228;-79
2022/09/18 04:35:10;;;;;;;1.80;1.57;;;;;;;13.05;77.74;94097.34;5113748;28;20203;-78
2022/09/18 04:37:36;;;;;;;1.80;1.40;;;;;;;13.03;78.50;94110.31;5113624;28;20216;-77
2022/09/18 04:40:05;;;;;;;1.67;1.57;;;;;;;12.74;79.33;94071.66;5113402;28;20606;-81
2022/09/18 04:42:32;;;;;;;1.60;1.50;;;;;;;12.97;77.40;94090.47;5114307;28;20664;-80
2022/09/18 04:45:00;;;;;;;2.70;1.70;;;;;;;13.07;79.14;94127.00;5113989;28;20192;-81
2022/09/18 04:47:27;;;;;;;4.43;1.73;;;;;;;12.98;79.32;94122.88;5114475;28;20220;-82
2022/09/18 04:49:54;;;;;;;1.50;1.50;;;;;;;11.65;78.75;93909.00;5128785;28;20261;-78
2022/09/18 04:52:21;;;;;;;1.50;1.43;;;;;;;13.13;78.32;94128.13;5120628;28;20252;-79
2022/09/18 04:54:48;;;;;;;1.53;1.50;;;;;;;13.11;78.76;94139.50;5124863;28;20201;-77
2022/09/18 04:57:14;;;;;;;1.43;1.43;;;;;;;12.73;79.22;94082.88;5119236;28;20212;-79
2022/09/18 04:59:41;;;;;;;1.40;1.30;;;;;;;12.90;79.54;94120.31;5113580;28;20193;-78
2022/09/18 05:02:09;;;;;;;1.33;1.33;;;;;;;12.77;79.23;94090.06;5112569;28;20189;-79
2022/09/18 05:04:36;;;;;;;1.60;1.50;;;;;;;13.19;79.13;94165.94;5112681;28;20552;-78
2022/09/18 05:07:04;;;;;;;1.30;1.30;;;;;;;13.02;79.85;94146.44;5112027;28;20578;-79
2022/09/18 05:09:31;;;;;;;1.30;1.30;;;;;;;13.24;79.04;94176.56;5113652;28;20254;-79
2022/09/18 05:11:58;;;;;;;1.43;1.43;;;;;;;13.22;80.02;94195.66;5113051;28;20674;-78
2022/09/18 05:14:27;;;;;;;1.30;1.30;;;;;;;13.23;80.03;94205.75;5112675;28;20185;-80
2022/09/18 05:16:55;;;;;;;1.50;1.40;;;;;;;13.06;79.47;94165.69;5112481;28;20205;-80
2022/09/18 05:19:23;;;;;;;1.63;1.53;;;;;;;13.00;77.26;94143.25;5112887;28;20638;-78
2022/09/18 05:21:50;;;;;;;1.40;1.40;;;;;;;13.36;77.57;94222.41;5112183;28;20561;-81
2022/09/18 05:24:17;;;;;;;1.40;1.40;;;;;;;13.30;78.14;94218.75;5112781;28;20213;-80
2022/09/18 05:26:44;;;;;;;1.60;1.50;;;;;;;13.34;78.03;94221.78;5112411;28;20204;-79
2022/09/18 05:29:11;;;;;;;2.17;1.60;;;;;;;13.26;77.81;94208.00;5113003;28;20583;-80
2022/09/18 05:31:38;;;;;;;1.93;1.50;;;;;;;12.30;77.74;94052.41;5112389;28;20188;-81
2022/09/18 05:34:07;;;;;;;1.63;1.53;;;;;;;13.35;78.19;94213.13;5096857;28;20277;-77
2022/09/18 05:36:38;;;;;;;2.30;1.80;;;;;;;13.03;77.58;94166.81;5095107;28;20181;-79
2022/09/18 05:39:06;;;;;;;1.73;1.63;;;;;;;12.78;75.96;94137.88;5113104;28;20189;-80
2022/09/18 05:41:33;;;;;;;1.70;1.60;;;;;;;13.44;75.86;94233.47;5111546;28;20191;-77
2022/09/18 05:44:02;;;;;;;1.70;1.60;;;;;;;13.43;75.65;94234.44;5112205;28;20201;-79
2022/09/18 05:46:29;;;;;;;1.70;1.60;;;;;;;13.53;74.36;94242.75;5112884;28;20185;-79
2022/09/18 05:48:59;;;;;;;1.80;1.70;;;;;;;13.07;74.26;94170.63;5112773;28;20208;-78
2022/09/18 05:51:26;;;;;;;1.80;1.70;;;;;;;13.38;74.83;94231.53;5112292;28;20851;-79
2022/09/18 05:53:56;;;;;;;1.90;1.80;;;;;;;13.47;74.75;94242.59;5112439;28;20182;-78
2022/09/18 05:56:23;;;;;;;1.83;1.73;;;;;;;13.47;75.06;94238.28;5111717;28;20733;-78
2022/09/18 05:58:50;;;;;;;1.80;1.70;;;;;;;13.52;74.60;94241.16;5111861;28;20224;-79
2022/09/18 06:01:17;;;;;;;1.70;1.60;;;;;;;13.51;75.78;94238.72;5111443;28;20560;-80
2022/09/18 06:03:44;;;;;;;2.10;2.00;;;;;;;13.59;74.42;94236.13;5110128;28;20208;-79
2022/09/18 06:06:11;;;;;;;1.63;1.53;;;;;;;13.59;73.58;94245.59;5094284;28;20225;-78
2022/09/18 06:08:37;;;;;;;2.50;2.07;;;;;;;13.62;73.87;94250.41;5097243;28;20185;-78
2022/09/18 06:11:08;;;;;;;1.70;1.60;;;;;;;13.67;73.71;94248.13;5112627;28;20271;-79
2022/09/18 06:13:35;;;;;;;1.90;1.80;;;;;;;13.60;73.26;94247.19;5106574;28;20190;-77
2022/09/18 06:16:02;;;;;;;1.63;1.53;;;;;;;13.65;71.51;94256.03;5106663;28;20223;-78
2022/09/18 06:18:29;;;;;;;1.90;1.80;;;;;;;13.46;72.65;94244.38;5110444;28;20220;-79
2022/09/18 06:20:58;;;;;;;2.03;1.93;;;;;;;13.68;72.49;94271.09;5111605;28;20783;-79
2022/09/18 06:23:26;;;;;;;1.70;1.60;;;;;;;13.64;73.41;94271.59;5111564;28;20204;-79
2022/09/18 06:25:59;;;;;;;1.83;1.70;;;;;;;13.00;72.07;94166.34;5112503;28;20196;-80
2022/09/18 06:28:29;;;;;;;1.70;1.60;;;;;;;13.66;71.51;94279.94;5111018;28;20263;-80
2022/09/18 06:31:00;;;;;;;1.77;1.63;;;;;;;13.66;71.97;94283.31;5098473;28;20190;-80
2022/09/18 06:33:29;;;;;;;1.40;1.30;;;;;;;13.05;69.73;94169.22;5091750;28;20201;-80
2022/09/18 06:35:56;;;;;;;1.47;1.40;;;;;;;13.55;72.09;94283.66;5116539;28;20202;-81
2022/09/18 06:38:23;;;;;;;1.97;1.40;;;;;;;13.62;72.72;94296.66;5117330;28;20299;-83
2022/09/18 06:40:50;;;;;;;1.60;1.50;;;;;;;13.60;71.73;94301.97;5111805;28;20253;-76
2022/09/18 06:43:18;;;;;;;1.60;1.50;;;;;;;13.62;72.57;94294.88;5117296;28;20181;-79
2022/09/18 06:45:51;;;;;;;1.40;1.30;;;;;;;13.73;71.92;94307.41;5121025;28;20211;-82
2022/09/18 06:48:30;;;;;;;3.80;1.70;;;;;;;13.60;71.73;94301.16;5129721;28;20177;-83
2022/09/18 06:50:58;;;;;;;3.10;1.43;;;;;;;13.59;70.97;94289.28;5116057;28;20193;-92
2022/09/18 06:53:28;;;;;;;1.60;1.50;;;;;;;13.39;71.99;94261.41;5113993;28;20188;-89
2022/09/18 06:56:00;;;;;;;1.60;1.50;;;;;;;13.77;72.92;94320.69;5111580;28;20197;-83
2022/09/18 06:58:27;;;;;;;1.63;1.53;;;;;;;13.83;72.03;94317.47;5107185;28;20220;-81
2022/09/18 07:00:59;;;;;;;1.60;1.50;;;;;;;13.95;71.22;94321.28;5110655;28;20197;-86
2022/09/18 07:03:26;;;;;;;1.43;1.30;;;;;;;14.06;70.79;94323.47;5111229;28;20196;-78
2022/09/18 07:05:54;;;;;;;1.10;1.10;;;;;;;14.07;69.87;94329.41;5110502;28;20586;-83
2022/09/18 07:08:21;;;;;;;1.40;1.30;;;;;;;14.12;70.10;94324.59;5110475;28;20578;-82
2022/09/18 07:10:51;;;;;;;1.40;1.30;;;;;;;13.94;70.52;94296.50;5109882;28;20246;-80
2022/09/18 07:13:20;;;;;;;1.73;1.57;;;;;;;14.17;68.27;94332.59;5110404;28;20185;-81
2022/09/18 07:15:53;;;;;;;1.30;1.30;;;;;;;14.12;68.73;94327.16;5110206;28;20179;-82
2022/09/18 07:18:21;;;;;;;1.80;1.70;;;;;;;14.15;69.73;94339.66;5110661;28;20229;-79
2022/09/18 07:20:48;;;;;;;5.00;2.70;;;;;;;14.23;70.40;94336.25;5110160;28;20185;-83
2022/09/18 07:23:14;;;;;;;2.93;2.30;;;;;;;14.33;69.06;94331.69;5110288;28;20291;-82
2022/09/18 07:25:41;;;;;;;1.93;1.73;;;;;;;14.44;66.38;94338.22;5110956;28;20217;-84
2022/09/18 07:28:10;;;;;;;2.20;1.90;;;;;;;14.45;67.22;94334.69;5118245;28;20203;-83
2022/09/18 07:30:40;;;;;;;1.50;1.50;;;;;;;14.54;65.07;94354.25;5112561;28;20180;-84
2022/09/18 07:33:10;;;;;;;1.40;1.40;;;;;;;13.70;67.01;94222.13;5115069;28;20193;-81
2022/09/18 07:35:40;;;;;;;1.30;1.30;;;;;;;14.44;67.64;94345.94;5111585;28;20218;-79
2022/09/18 07:38:08;;;;;;;2.23;1.40;;;;;;;14.30;67.20;94327.69;5109133;28;20207;-85
2022/09/18 07:40:35;;;;;;;1.73;1.63;;;;;;;13.36;67.28;94179.56;5107996;28;20204;-80
2022/09/18 07:43:03;;;;;;;1.80;1.70;;;;;;;14.57;66.34;94368.56;5108751;28;20198;-80
2022/09/18 07:45:30;;;;;;;1.53;1.50;;;;;;;14.60;66.36;94365.69;5107001;28;20204;-75
2022/09/18 07:47:57;;;;;;;1.60;1.50;;;;;;;14.48;66.64;94334.34;5107325;28;20208;-78
2022/09/18 07:50:24;;;;;;;2.00;1.40;;;;;;;14.63;66.04;94352.44;5107104;28;20280;-78
2022/09/18 07:52:54;;;;;;;1.50;1.50;;;;;;;14.75;65.68;94362.19;5107299;28;20196;-80
2022/09/18 07:55:22;;;;;;;2.13;1.40;;;;;;;14.58;66.18;94336.72;5106900;28;20219;-80
2022/09/18 07:57:54;;;;;;;1.40;1.40;;;;;;;14.84;66.38;94356.97;5101614;28;20620;-82
2022/09/18 08:00:27;;;;;;;2.73;1.83;;;;;;;14.93;65.17;94374.75;5114323;28;20200;-84
2022/09/18 08:03:15;;;;;;;2.07;1.47;;;;;;;14.98;64.56;94369.91;5108057;28;20255;-83
2022/09/18 08:05:42;;;;;;;1.93;1.40;;;;;;;14.98;63.69;94369.91;5097176;28;20735;-78
2022/09/18 08:08:13;;;;;;;1.27;1.20;;;;;;;15.05;63.91;94373.38;5095055;28;20185;-78
2022/09/18 08:10:43;;;;;;;1.40;1.30;;;;;;;15.13;63.95;94371.72;5104874;28;20223;-85
2022/09/18 08:13:10;;;;;;;1.60;1.50;;;;;;;15.14;63.75;94348.38;5113957;28;20204;-81
2022/09/18 08:15:39;;;;;;;1.63;1.53;;;;;;;15.37;61.00;94371.53;5112759;28;20184;-82
2022/09/18 08:18:08;;;;;;;1.30;1.20;;;;;;;15.15;62.24;94346.59;5114670;28;20228;-88
2022/09/18 08:20:36;;;;;;;3.60;1.80;;;;;;;15.42;63.25;94364.06;5113612;28;20191;-82
2022/09/18 08:23:05;;;;;;;3.87;1.30;;;;;;;15.47;63.94;94364.34;5112258;28;20211;-81
2022/09/18 08:25:33;;;;;;;1.63;1.53;;;;;;;15.59;64.16;94358.75;5111470;28;20517;-83
2022/09/18 08:28:02;;;;;;;1.90;1.80;;;;;;;15.74;63.89;94352.66;5111512;28;20591;-80
2022/09/18 08:30:31;;;;;;;1.50;1.40;;;;;;;15.75;62.41;94343.13;5113132;28;20188;-83
2022/09/18 08:32:59;;;;;;;3.60;1.80;;;;;;;15.86;62.21;94354.81;5113184;28;20193;-84
2022/09/18 08:35:26;;;;;;;1.90;1.60;;;;;;;15.78;61.68;94332.47;5114022;28;20250;-80
2022/09/18 08:37:54;;;;;;;7.27;1.70;;;;;;;16.02;62.03;94352.03;5113648;28;20204;-86
2022/09/18 08:40:29;;;;;;;1.37;1.37;;;;;;;16.11;60.26;94360.47;5114295;28;20181;-81
2022/09/18 08:43:08;;;;;;;1.70;1.60;;;;;;;16.00;60.50;94347.03;5112076;28;20265;-78
2022/09/18 08:45:50;;;;;;;1.80;1.70;;;;;;;16.01;60.01;94340.09;5116544;28;20210;-84
2022/09/18 08:48:21;;;;;;;1.30;1.30;;;;;;;15.99;58.84;94324.81;5117118;28;20200;-82
2022/09/18 08:50:55;;;;;;;1.63;1.40;;;;;;;16.43;59.26;94359.25;5116943;28;20200;-84
2022/09/18 08:53:29;;;;;;;1.20;1.20;;;;;;;16.63;60.52;94367.22;5112329;28;20189;-76
2022/09/18 08:55:58;;;;;;;2.17;1.30;;;;;;;16.72;56.87;94371.31;5110633;28;20193;-79
2022/09/18 08:58:33;;;;;;;2.37;1.20;;;;;;;16.73;56.81;94373.72;5111196;28;20221;-78
2022/09/18 09:01:06;;;;;;;2.17;1.50;;;;;;;16.70;62.89;94381.78;5110349;28;20192;-76
2022/09/18 09:03:44;;;;;;;2.97;1.33;;;;;;;16.87;61.50;94384.97;5110837;28;20216;-78
2022/09/18 09:06:26;;;;;;;2.10;1.97;;;;;;;16.87;59.35;94395.31;5110049;28;20236;-80
2022/09/18 09:09:28;;;;;;;1.63;1.50;;;;;;;16.75;61.44;94363.19;5111029;28;20217;-78
2022/09/18 09:12:04;;;;;;;2.27;1.30;;;;;;;16.81;57.84;94365.06;5027197;28;20202;-80
2022/09/18 09:14:46;;;;;;;2.07;1.70;;;;;;;17.11;60.03;94411.44;5027641;28;20245;-77
2022/09/18 09:17:19;;;;;;;2.20;1.50;;;;;;;17.13;58.29;94423.19;5027899;28;20654;-78
2022/09/18 09:19:53;;;;;;;1.53;1.40;;;;;;;17.05;57.03;94424.13;5027466;28;20734;-79
2022/09/18 09:22:35;;;;;;;2.23;1.50;;;;;;;16.75;55.82;94384.69;5027585;28;20219;-78
2022/09/18 09:25:15;;;;;;;2.37;1.53;;;;;;;17.02;57.49;94434.03;5027370;28;20183;-81
2022/09/18 09:27:48;;;;;;;1.30;1.30;;;;;;;16.10;57.01;94276.31;5026980;28;20203;-78
2022/09/18 09:30:18;;;;;;;1.47;1.40;;;;;;;16.58;57.58;94354.06;5026959;28;20598;-81
2022/09/18 09:32:49;;;;;;;1.60;1.50;;;;;;;17.12;56.98;94436.28;5026644;28;20202;-79
2022/09/18 09:35:29;;;;;;;1.40;1.30;;;;;;;17.11;56.93;94437.28;5026798;28;20600;-77
2022/09/18 09:37:59;;;;;;;2.13;1.47;;;;;;;17.14;55.49;94442.91;5026534;28;20184;-79
2022/09/18 09:40:35;;;;;;;1.67;1.57;;;;;;;17.18;56.13;94443.31;5027131;28;20187;-78
2022/09/18 09:43:06;;;;;;;1.60;1.50;;;;;;;17.19;54.03;94456.06;5027226;28;20597;-77
2022/09/18 09:45:43;;;;;;;3.13;1.57;;;;;;;16.82;55.56;94412.34;5026988;28;20256;-75
2022/09/18 09:48:18;;;;;;;1.63;1.53;;;;;;;16.93;56.16;94455.78;5056909;28;20194;-78
2022/09/18 09:50:52;;;;;;;1.57;1.47;;;;;;;17.09;55.97;94465.88;5091970;28;20198;-78
2022/09/18 09:53:23;;;;;;;1.77;1.67;;;;;;;17.04;56.68;94442.38;5092960;28;20178;-78
2022/09/18 09:55:59;;;;;;;2.60;2.10;;;;;;;17.10;55.52;94456.34;5091892;28;20200;-78
2022/09/18 09:58:40;;;;;;;2.20;2.10;;;;;;;17.05;54.99;94457.72;5091705;28;20205;-77
2022/09/18 10:01:15;;;;;;;2.83;1.97;;;;;;;17.05;55.24;94462.06;5093452;28;20193;-77
2022/09/18 10:03:56;;;;;;;2.33;2.10;;;;;;;16.98;55.72;94454.25;5095178;28;20204;-80
2022/09/18 10:06:41;;;;;;;2.30;2.10;;;;;;;16.81;55.27;94439.97;5092236;28;20225;-79
2022/09/18 10:09:17;;;;;;;2.67;2.47;;;;;;;16.78;55.40;94435.16;5091585;28;20193;-76
2022/09/18 10:11:53;;;;;;;2.37;2.27;;;;;;;16.90;56.63;94477.59;5091536;28;20636;-78
2022/09/18 10:14:25;;;;;;;3.63;2.80;;;;;;;16.91;56.37;94470.66;5091445;28;20262;-80
2022/09/18 10:16:56;;;;;;;3.57;2.57;;;;;;;16.89;56.62;94475.22;5091583;28;20182;-83
2022/09/18 10:19:28;;;;;;;3.10;2.90;;;;;;;16.88;57.29;94468.44;5091337;28;20241;-78
2022/09/18 10:21:57;;;;;;;2.70;2.50;;;;;;;16.59;55.86;94421.00;5091935;28;20190;-78
2022/09/18 10:24:30;;;;;;;3.20;2.90;;;;;;;16.86;55.81;94481.53;5091424;28;20268;-79
2022/09/18 10:27:00;;;;;;;4.00;2.57;;;;;;;16.76;55.79;94483.59;5090937;28;20202;-80
2022/09/18 10:29:27;;;;;;;2.90;2.70;;;;;;;16.62;56.73;94495.50;5089968;28;20205;-78
2022/09/18 10:31:57;;;;;;;4.27;3.87;;;;;;;16.56;56.60;94491.88;5091364;28;20186;-77
2022/09/18 10:34:39;;;;;;;3.10;2.90;;;;;;;16.54;57.68;94490.47;5090594;28;20190;-80
2022/09/18 10:37:15;;;;;;;3.47;3.27;;;;;;;16.51;58.23;94488.22;5090872;28;20388;-79
2022/09/18 10:39:52;;;;;;;4.40;3.10;;;;;;;16.50;57.27;94478.88;5090824;28;20600;-77
2022/09/18 10:42:22;;;;;;;5.13;3.40;;;;;;;16.52;58.19;94479.50;5092025;28;20185;-79
2022/09/18 10:44:52;;;;;;;6.37;3.73;;;;;;;16.58;58.18;94498.63;5090529;28;20200;-79
2022/09/18 10:47:26;;;;;;;5.30;3.53;;;;;;;16.61;57.71;94498.28;5090304;28;20246;-80
2022/09/18 10:49:56;;;;;;;5.00;3.73;;;;;;;16.55;58.87;94500.59;5090487;28;20322;-77
2022/09/18 10:52:30;;;;;;;4.10;3.80;;;;;;;16.63;58.20;94501.50;5090773;28;20200;-78
2022/09/18 10:55:09;;;;;;;3.10;2.90;;;;;;;16.49;57.80;94479.84;5072156;28;20212;-80
2022/09/18 10:57:42;;;;;;;4.23;3.93;;;;;;;16.72;57.97;94505.56;5090401;28;20288;-83
2022/09/18 11:00:36;;;;;;;12.07;4.20;;;;;;;16.68;57.57;94504.34;5090096;28;20776;-78
2022/09/18 11:03:19;;;;;;;3.60;3.30;;;;;;;16.77;56.40;94509.25;5027595;28;21118;-77
2022/09/18 11:05:57;;;;;;;3.90;3.60;;;;;;;16.82;56.35;94507.91;5027830;28;20223;-78
2022/09/18 11:08:29;;;;;;;4.20;3.90;;;;;;;16.46;57.05;94470.69;5028244;28;20290;-76
2022/09/18 11:11:02;;;;;;;3.50;3.30;;;;;;;16.88;57.17;94515.75;5027605;28;20200;-81
2022/09/18 11:13:30;;;;;;;3.60;3.40;;;;;;;16.71;56.54;94488.47;5027328;28;20245;-83
2022/09/18 11:16:04;;;;;;;4.20;3.83;;;;;;;16.89;56.32;94522.50;5027760;28;20200;-79
2022/09/18 11:18:33;;;;;;;3.30;3.00;;;;;;;16.92;55.34;94522.13;5027403;28;20192;-77
2022/09/18 11:21:04;;;;;;;3.70;3.10;;;;;;;16.86;55.46;94524.66;5027258;28;20698;-77
2022/09/18 11:23:33;;;;;;;3.17;2.90;;;;;;;16.74;55.77;94519.91;5027564;28;20249;-76
2022/09/18 11:26:20;;;;;;;5.43;3.03;;;;;;;16.41;57.10;94469.63;5027970;28;20208;-82
2022/09/18 11:29:02;;;;;;;2.90;2.70;;;;;;;16.73;56.34;94510.59;5028210;28;20697;-83
2022/09/18 11:31:40;;;;;;;2.33;2.07;;;;;;;16.54;55.95;94483.50;5028077;28;20194;-81
2022/09/18 11:34:20;;;;;;;2.37;2.17;;;;;;;16.34;55.51;94451.47;5029228;28;20199;-78
2022/09/18 11:36:49;;;;;;;2.50;2.30;;;;;;;16.80;55.73;94519.22;5029265;28;20191;-78
2022/09/18 11:39:23;;;;;;;2.07;1.90;;;;;;;16.39;54.22;94446.56;5045270;28;20221;-77
2022/09/18 11:41:52;;;;;;;2.30;2.10;;;;;;;16.90;53.26;94531.06;5096362;28;20197;-76
2022/09/18 11:44:25;;;;;;;2.17;2.00;;;;;;;16.68;53.75;94506.91;5103690;28;20294;-81
2022/09/18 11:47:17;;;;;;;1.90;1.80;;;;;;;16.75;53.40;94529.28;5103165;28;20186;-78
2022/09/18 11:49:52;;;;;;;2.50;2.03;;;;;;;16.71;55.01;94525.44;5092290;28;20193;-77
2022/09/18 11:52:24;;;;;;;2.27;2.07;;;;;;;16.70;55.08;94521.22;5092829;28;20280;-78